Time;durP1;ratioP1;P1;durP2;ratioP2;P2;SDS_P1;SDS_P2;PMS_P1;PMS_P2;Temp;Humidity;BMP_temperature;BMP_pressure;BME280_temperature;BME280_humidity;BME280_pressure;Samples;Min_cycle;Max_cycle;Signal;HPM_P1;HPM_P2
2023/03/23 00:00:54;;;;;;;59.03;28.85;;;;;;;9.49;100.00;97706.91;5049140;28;20033;-83
2023/03/23 00:03:21;;;;;;;55.45;27.75;;;;;;;9.55;100.00;97704.75;5065846;28;20516;-83
2023/03/23 00:05:49;;;;;;;56.28;28.58;;;;;;;9.41;100.00;97699.34;5032568;28;20480;-82
2023/03/23 00:08:21;;;;;;;56.58;31.10;;;;;;;9.43;100.00;97701.91;5030221;28;20040;-82
2023/03/23 00:10:56;;;;;;;48.05;24.80;;;;;;;9.38;100.00;97694.16;5032117;28;20035;-83
2023/03/23 00:13:26;;;;;;;44.25;24.80;;;;;;;9.30;100.00;97703.50;5059409;28;20440;-83
2023/03/23 00:15:52;;;;;;;44.10;23.10;;;;;;;9.31;100.00;97702.56;5032451;28;20169;-83
2023/03/23 00:18:22;;;;;;;48.17;23.88;;;;;;;9.31;100.00;97697.22;5032646;28;20056;-84
2023/03/23 00:20:49;;;;;;;43.97;23.27;;;;;;;9.35;100.00;97696.97;5049089;28;20021;-82
2023/03/23 00:23:20;;;;;;;37.90;20.30;;;;;;;9.38;100.00;97706.63;5050446;28;20404;-81
2023/03/23 00:25:53;;;;;;;33.17;19.77;;;;;;;9.39;100.00;97706.53;5048692;28;20029;-82
2023/03/23 00:28:24;;;;;;;40.28;19.80;;;;;;;9.38;100.00;97701.31;5065541;28;20049;-82
2023/03/23 00:30:59;;;;;;;41.27;21.57;;;;;;;9.31;100.00;97697.22;5049319;28;20033;-83
2023/03/23 00:33:27;;;;;;;39.65;21.42;;;;;;;9.17;100.00;97684.63;5048836;28;20394;-83
2023/03/23 00:35:54;;;;;;;42.83;20.98;;;;;;;9.09;100.00;97690.41;5048979;28;20043;-83
2023/03/23 00:38:23;;;;;;;36.38;19.10;;;;;;;8.84;100.00;97668.63;5032693;28;20029;-81
2023/03/23 00:41:11;;;;;;;39.03;19.77;;;;;;;8.80;100.00;97675.06;5048578;28;20517;-83
2023/03/23 00:43:36;;;;;;;35.78;18.55;;;;;;;8.71;100.00;97672.88;5051767;28;20415;-83
2023/03/23 00:46:08;;;;;;;34.33;18.95;;;;;;;8.78;100.00;97690.28;5052636;28;20112;-83
2023/03/23 00:48:35;;;;;;;40.05;18.58;;;;;;;8.71;100.00;97697.75;5036680;28;20083;-83
2023/03/23 00:51:05;;;;;;;38.58;20.63;;;;;;;8.62;100.00;97700.03;5036272;28;20021;-83
2023/03/23 00:53:32;;;;;;;40.40;20.23;;;;;;;8.57;100.00;97702.06;5069911;28;20461;-84
2023/03/23 00:55:57;;;;;;;42.67;21.10;;;;;;;8.50;100.00;97698.00;5035842;28;20040;-83
2023/03/23 00:58:23;;;;;;;36.78;20.48;;;;;;;8.40;100.00;97683.44;5053712;28;20500;-82
2023/03/23 01:00:48;;;;;;;39.65;20.65;;;;;;;8.37;100.00;97691.56;5047339;28;20021;-84
2023/03/23 01:03:17;;;;;;;42.15;20.85;;;;;;;8.42;100.00;97703.72;5052500;28;20067;-83
2023/03/23 01:05:46;;;;;;;45.22;22.55;;;;;;;8.32;100.00;97704.25;5052263;28;20033;-83
2023/03/23 01:08:13;;;;;;;49.47;23.35;;;;;;;8.33;100.00;97706.00;5052041;28;20131;-83
2023/03/23 01:10:39;;;;;;;55.10;24.75;;;;;;;8.35;100.00;97709.44;5068410;28;20396;-83
2023/03/23 01:13:06;;;;;;;48.40;25.60;;;;;;;8.28;100.00;97700.00;5035741;28;20025;-81
2023/03/23 01:15:31;;;;;;;51.92;26.33;;;;;;;8.28;100.00;97705.34;5035482;28;20063;-82
2023/03/23 01:17:57;;;;;;;66.07;27.08;;;;;;;8.26;100.00;97705.41;5052009;28;20021;-82
2023/03/23 01:20:24;;;;;;;52.83;26.73;;;;;;;8.24;100.00;97706.44;5035537;28;20467;-82
2023/03/23 01:22:50;;;;;;;54.65;25.65;;;;;;;8.40;100.00;97716.25;5035509;28;20523;-82
2023/03/23 01:25:16;;;;;;;43.70;23.88;;;;;;;8.40;100.00;97723.41;5068757;28;20025;-83
2023/03/23 01:27:41;;;;;;;45.40;23.08;;;;;;;8.43;100.00;97723.25;5051523;28;20529;-84
2023/03/23 01:30:10;;;;;;;49.63;23.25;;;;;;;8.52;100.00;97731.63;5051974;28;20052;-82
2023/03/23 01:32:35;;;;;;;42.78;21.90;;;;;;;8.55;100.00;97730.63;5051781;28;20036;-83
2023/03/23 01:35:01;;;;;;;41.10;21.20;;;;;;;8.58;100.00;97733.13;5051746;28;20020;-83
2023/03/23 01:37:26;;;;;;;45.42;21.00;;;;;;;8.62;100.00;97734.69;5051609;28;20334;-83
2023/03/23 01:39:53;;;;;;;36.95;19.63;;;;;;;8.62;100.00;97729.34;5051530;28;20089;-83
2023/03/23 01:42:25;;;;;;;43.65;18.88;;;;;;;8.68;100.00;97729.91;5067884;28;20036;-83
2023/03/23 01:44:50;;;;;;;37.72;20.27;;;;;;;8.70;100.00;97729.84;5050720;28;20443;-82
2023/03/23 01:47:17;;;;;;;37.38;18.80;;;;;;;8.69;100.00;97717.44;5052323;28;20029;-82
2023/03/23 01:49:44;;;;;;;39.42;19.63;;;;;;;8.68;100.00;97705.91;5043112;28;20089;-83
2023/03/23 01:52:16;;;;;;;49.92;20.00;;;;;;;8.74;100.00;97712.72;5051591;28;20021;-84
2023/03/23 01:54:44;;;;;;;41.63;20.92;;;;;;;8.69;100.00;97709.44;5067766;28;20024;-82
2023/03/23 01:57:16;;;;;;;41.13;19.50;;;;;;;8.69;100.00;97709.44;5035099;28;20043;-83
2023/03/23 01:59:44;;;;;;;44.08;21.63;;;;;;;8.71;100.00;97710.22;5051233;28;20033;-83
2023/03/23 02:02:11;;;;;;;53.22;22.30;;;;;;;8.74;100.00;97712.72;5051306;28;20448;-83
2023/03/23 02:04:49;;;;;;;50.72;23.40;;;;;;;8.74;100.00;97702.06;5051449;28;20029;-82
2023/03/23 02:07:19;;;;;;;61.90;26.08;;;;;;;8.77;100.00;97712.56;5050959;28;20466;-82
2023/03/23 02:09:44;;;;;;;66.60;27.55;;;;;;;8.78;100.00;97708.09;5051213;28;20031;-83
2023/03/23 02:12:10;;;;;;;74.25;28.85;;;;;;;8.72;100.00;97714.63;5034347;28;20025;-82
2023/03/23 02:14:36;;;;;;;71.55;29.77;;;;;;;8.68;100.00;97718.38;5051317;28;20485;-82
2023/03/23 02:17:17;;;;;;;65.80;28.63;;;;;;;8.67;100.00;97722.84;5050913;28;20029;-82
2023/03/23 02:20:05;;;;;;;66.93;28.40;;;;;;;8.75;100.00;97729.59;5050886;28;20048;-83
2023/03/23 02:22:58;;;;;;;60.90;26.95;;;;;;;8.72;100.00;97727.94;5047029;28;20033;-83
2023/03/23 02:25:44;;;;;;;60.97;24.88;;;;;;;8.77;100.00;97733.91;5034541;28;20631;-83
2023/03/23 02:28:19;;;;;;;57.78;25.67;;;;;;;8.75;100.00;97730.47;5050301;28;20048;-82
2023/03/23 02:31:07;;;;;;;58.92;26.13;;;;;;;8.79;100.00;97729.38;5050906;28;20488;-83
2023/03/23 02:33:40;;;;;;;59.70;26.05;;;;;;;8.77;100.00;97728.56;5050563;28;20033;-83
2023/03/23 02:36:21;;;;;;;56.22;24.20;;;;;;;8.79;100.00;97729.38;5050896;28;20029;-81
2023/03/23 02:39:17;;;;;;;57.85;24.40;;;;;;;8.80;100.00;97722.22;5050465;28;20437;-83
2023/03/23 02:41:47;;;;;;;58.70;25.77;;;;;;;8.75;100.00;97725.13;5050004;28;20107;-82
2023/03/23 02:44:14;;;;;;;58.85;25.33;;;;;;;8.73;100.00;97732.34;5033740;28;20040;-82
2023/03/23 02:46:40;;;;;;;65.47;28.13;;;;;;;8.72;100.00;97730.63;5050656;28;20037;-83
2023/03/23 02:49:07;;;;;;;64.93;27.23;;;;;;;8.67;100.00;97728.16;5050212;28;20150;-82
2023/03/23 02:51:34;;;;;;;63.20;25.67;;;;;;;8.61;100.00;97738.31;5050386;28;20420;-83
2023/03/23 02:54:00;;;;;;;67.78;26.55;;;;;;;8.66;100.00;97737.13;5067012;28;20032;-82
2023/03/23 02:56:27;;;;;;;63.58;26.15;;;;;;;8.75;100.00;97735.78;5051495;28;20112;-82
2023/03/23 02:58:54;;;;;;;61.33;26.50;;;;;;;8.80;100.00;97748.91;5050130;28;20037;-82
2023/03/23 03:01:25;;;;;;;60.10;26.15;;;;;;;8.86;100.00;97753.91;5049789;28;20549;-83
2023/03/23 03:03:53;;;;;;;60.73;26.97;;;;;;;8.88;100.00;97755.56;5051556;28;20024;-81
2023/03/23 03:06:48;;;;;;;60.05;26.05;;;;;;;8.78;100.00;97751.63;5033019;28;20338;-80
2023/03/23 03:09:25;;;;;;;68.47;28.20;;;;;;;8.95;100.00;97762.28;5046010;28;20520;-80
2023/03/23 03:11:55;;;;;;;58.38;28.27;;;;;;;8.94;100.00;97757.03;5051142;28;20059;-79
2023/03/23 03:15:17;;;;;;;63.08;25.02;;;;;;;9.03;100.00;97767.22;5049784;28;20448;-80
2023/03/23 03:17:51;;;;;;;54.65;24.08;;;;;;;9.01;100.00;97761.13;5040547;28;20214;-80
2023/03/23 03:20:16;;;;;;;50.97;23.23;;;;;;;8.86;100.00;97756.59;5049749;28;20056;-81
2023/03/23 03:22:43;;;;;;;56.53;23.38;;;;;;;8.97;100.00;97768.41;5049881;28;20574;-81
2023/03/23 03:25:12;;;;;;;42.10;21.58;;;;;;;8.94;100.00;97765.91;5049663;28;20021;-80
2023/03/23 03:27:40;;;;;;;43.80;22.45;;;;;;;8.88;100.00;97763.56;5049273;28;20578;-80
2023/03/23 03:30:09;;;;;;;45.35;22.30;;;;;;;8.93;100.00;97765.97;5049614;28;20120;-80
2023/03/23 03:32:41;;;;;;;45.85;22.85;;;;;;;8.85;100.00;97763.72;5032998;28;20025;-80
2023/03/23 03:35:07;;;;;;;47.85;23.35;;;;;;;8.86;100.00;97757.41;5049653;28;20445;-80
2023/03/23 03:37:37;;;;;;;54.00;23.20;;;;;;;8.88;100.00;97763.56;5032869;28;20025;-80
2023/03/23 03:40:11;;;;;;;58.08;24.70;;;;;;;8.84;100.00;97756.66;5032832;28;20029;-82
2023/03/23 03:42:38;;;;;;;65.85;27.05;;;;;;;8.87;100.00;97760.97;5033730;28;20416;-81
2023/03/23 03:45:05;;;;;;;57.58;25.45;;;;;;;8.85;100.00;97758.38;5033081;28;20029;-83
2023/03/23 03:47:31;;;;;;;57.35;24.35;;;;;;;8.84;100.00;97761.13;5032770;28;20025;-82
2023/03/23 03:49:56;;;;;;;56.42;24.48;;;;;;;8.90;100.00;97764.34;5032727;28;20044;-82
2023/03/23 03:52:22;;;;;;;57.90;25.20;;;;;;;8.89;100.00;97759.94;5032966;28;20047;-80
2023/03/23 03:54:47;;;;;;;53.55;26.15;;;;;;;8.84;100.00;97751.31;5049540;28;20540;-79
2023/03/23 03:57:13;;;;;;;61.63;28.30;;;;;;;8.84;100.00;97751.31;5032728;28;20492;-80
2023/03/23 03:59:39;;;;;;;64.60;26.90;;;;;;;8.80;100.00;97749.75;5048608;28;20045;-80
2023/03/23 04:02:04;;;;;;;65.10;27.88;;;;;;;8.82;100.00;97747.88;5065531;28;20566;-80
2023/03/23 04:04:30;;;;;;;63.00;28.15;;;;;;;8.90;100.00;97756.34;5032696;28;20021;-81
2023/03/23 04:06:57;;;;;;;63.58;27.83;;;;;;;8.90;100.00;97753.66;5032532;28;20183;-81
2023/03/23 04:09:22;;;;;;;65.53;29.00;;;;;;;8.92;100.00;97765.09;5049290;28;20040;-82
2023/03/23 04:11:48;;;;;;;90.25;34.00;;;;;;;8.85;100.00;97752.19;5032165;28;20029;-80
2023/03/23 04:14:13;;;;;;;86.00;31.95;;;;;;;8.88;100.00;97763.56;5032769;28;20158;-80
2023/03/23 04:16:40;;;;;;;63.72;26.58;;;;;;;8.99;100.00;97769.19;5049285;28;20493;-84
2023/03/23 04:19:07;;;;;;;63.25;26.33;;;;;;;8.95;100.00;97753.44;5051456;28;20056;-82
2023/03/23 04:21:33;;;;;;;57.83;25.90;;;;;;;8.90;100.00;97735.00;5053597;28;20392;-81
2023/03/23 04:23:59;;;;;;;61.55;25.10;;;;;;;9.04;100.00;97763.63;5053670;28;20051;-82
2023/03/23 04:26:28;;;;;;;60.90;24.65;;;;;;;9.04;100.00;97752.97;5053670;28;20560;-88
2023/03/23 04:28:55;;;;;;;61.05;26.60;;;;;;;8.94;100.00;97733.91;5053320;28;20021;-85
2023/03/23 04:31:24;;;;;;;61.40;25.63;;;;;;;9.00;100.00;97741.56;5053458;28;20021;-86
2023/03/23 04:33:52;;;;;;;52.83;25.13;;;;;;;9.01;100.00;97748.63;5036968;28;20024;-85
2023/03/23 04:36:19;;;;;;;67.05;28.75;;;;;;;9.04;100.00;97750.28;5037343;28;20032;-86
2023/03/23 04:38:45;;;;;;;74.75;30.42;;;;;;;8.93;100.00;97731.28;5053231;28;20028;-82
2023/03/23 04:41:11;;;;;;;60.53;27.02;;;;;;;9.06;100.00;97751.06;5053266;28;20409;-84
2023/03/23 04:43:41;;;;;;;58.53;25.92;;;;;;;9.07;100.00;97748.31;5036457;28;20462;-84
2023/03/23 04:46:08;;;;;;;65.55;25.40;;;;;;;8.92;100.00;97732.25;5036741;28;20021;-84
2023/03/23 04:48:35;;;;;;;59.50;23.88;;;;;;;8.97;100.00;97755.09;5053136;28;20037;-84
2023/03/23 04:51:03;;;;;;;55.63;26.33;;;;;;;9.05;100.00;97760.00;5052652;28;20116;-83
2023/03/23 06:23:32;;;;;;;55.88;27.60;;;;;;;11.42;100.00;97703.41;4526283;28;15142914;-79
2023/03/23 06:26:01;;;;;;;55.92;27.98;;;;;;;11.56;100.00;97696.31;5073490;28;20072;-79
2023/03/23 06:28:26;;;;;;;57.08;27.48;;;;;;;11.74;100.00;97679.09;5050175;27;20020;-80
2023/03/23 06:30:55;;;;;;;57.53;26.88;;;;;;;11.83;100.00;97681.19;5117720;27;20495;-79
2023/03/23 06:33:23;;;;;;;54.30;26.45;;;;;;;11.81;100.00;97662.50;5117398;27;20060;-79
2023/03/23 06:35:49;;;;;;;52.63;25.83;;;;;;;12.05;100.00;97656.50;5027223;28;20025;-79
2023/03/23 06:38:15;;;;;;;52.50;25.83;;;;;;;12.08;100.00;97654.50;5109064;27;20440;-80
2023/03/23 06:40:46;;;;;;;55.17;25.75;;;;;;;12.35;100.00;97652.66;5117481;27;20479;-80
2023/03/23 06:43:11;;;;;;;46.83;25.05;;;;;;;12.63;100.00;97640.03;5039266;28;20484;-79
2023/03/23 06:45:37;;;;;;;48.67;24.33;;;;;;;12.69;100.00;97626.19;5090724;27;20091;-80
2023/03/23 06:48:02;;;;;;;54.20;27.08;;;;;;;12.79;100.00;97629.97;5044406;28;20030;-79
2023/03/23 06:50:28;;;;;;;49.30;25.20;;;;;;;13.07;100.00;97622.53;5073804;27;20064;-80
2023/03/23 06:52:53;;;;;;;59.88;26.20;;;;;;;13.26;100.00;97605.16;5115172;27;20032;-80
2023/03/23 06:55:19;;;;;;;51.22;25.58;;;;;;;13.34;100.00;97606.31;5110101;28;20036;-80
2023/03/23 06:57:44;;;;;;;49.28;24.90;;;;;;;13.59;100.00;97602.72;5116686;28;20048;-80
2023/03/23 07:00:13;;;;;;;50.60;24.73;;;;;;;13.95;100.00;97594.63;5103525;27;20399;-80
2023/03/23 07:02:42;;;;;;;56.58;25.42;;;;;;;14.25;100.00;97585.19;5036734;27;20043;-80
2023/03/23 07:05:09;;;;;;;46.45;24.85;;;;;;;14.68;100.00;97582.78;5065832;28;20399;-78
2023/03/23 07:07:35;;;;;;;49.47;25.67;;;;;;;14.86;100.00;97576.00;5075573;27;20092;-80
2023/03/23 07:10:02;;;;;;;51.72;24.77;;;;;;;14.63;100.00;97570.56;5115855;27;20036;-81
2023/03/23 07:12:28;;;;;;;45.90;24.38;;;;;;;14.76;100.00;97561.53;5079714;28;20033;-81
2023/03/23 07:14:55;;;;;;;43.65;23.58;;;;;;;14.76;100.00;97566.91;5068535;28;20037;-78
2023/03/23 07:17:21;;;;;;;50.55;24.73;;;;;;;15.05;100.00;97566.31;5107773;27;20040;-79
2023/03/23 07:19:46;;;;;;;50.60;26.25;;;;;;;15.11;100.00;97559.56;5053228;27;20032;-78
2023/03/23 07:22:12;;;;;;;49.60;25.48;;;;;;;14.91;100.00;97563.88;5067737;27;20063;-78
2023/03/23 07:24:38;;;;;;;56.88;29.05;;;;;;;14.86;100.00;97560.66;5117069;27;20031;-80
2023/03/23 07:27:03;;;;;;;66.47;32.15;;;;;;;14.60;100.00;97554.66;5115276;27;20478;-78
2023/03/23 07:29:29;;;;;;;44.33;24.27;;;;;;;14.49;100.00;97559.13;5131852;27;20035;-80
2023/03/23 07:31:55;;;;;;;53.42;28.95;;;;;;;14.21;100.00;97563.06;5096549;28;20487;-81
2023/03/23 07:34:21;;;;;;;46.13;23.77;;;;;;;14.12;100.00;97558.38;5104589;27;20121;-79
2023/03/23 07:36:46;;;;;;;48.53;25.92;;;;;;;14.16;100.00;97559.84;5106965;28;20096;-79
2023/03/23 07:39:13;;;;;;;47.90;25.08;;;;;;;13.88;100.00;97560.22;5099831;28;20032;-79
2023/03/23 07:41:39;;;;;;;43.25;21.13;;;;;;;13.82;100.00;97571.44;5094828;27;20031;-78
2023/03/23 07:44:05;;;;;;;46.55;22.67;;;;;;;13.75;100.00;97557.59;5114611;27;20509;-79
2023/03/23 07:46:31;;;;;;;43.58;22.95;;;;;;;13.88;100.00;97571.84;5130049;27;20485;-78
2023/03/23 07:48:57;;;;;;;38.75;20.48;;;;;;;14.01;100.00;97566.41;5110366;27;20433;-79
2023/03/23 07:51:23;;;;;;;41.97;21.65;;;;;;;13.96;100.00;97566.75;5106489;27;20027;-79
2023/03/23 07:53:49;;;;;;;51.70;25.27;;;;;;;14.24;100.00;97575.44;5116113;27;20409;-80
2023/03/23 07:56:18;;;;;;;45.20;21.42;;;;;;;13.89;100.00;97562.81;5116992;27;20114;-80
2023/03/23 07:58:45;;;;;;;54.35;26.20;;;;;;;14.08;100.00;97541.63;5112974;28;20124;-79
2023/03/23 08:01:10;;;;;;;43.15;22.45;;;;;;;14.45;100.00;97561.22;5095311;28;20111;-79
2023/03/23 08:03:37;;;;;;;36.78;18.50;;;;;;;14.93;100.00;97553.81;5105535;27;20117;-79
2023/03/23 08:06:02;;;;;;;32.90;18.33;;;;;;;15.52;100.00;97549.03;5106411;28;20024;-79
2023/03/23 08:08:31;;;;;;;35.00;18.35;;;;;;;15.83;100.00;97544.69;5102990;27;20034;-80
2023/03/23 08:10:57;;;;;;;27.00;16.42;;;;;;;16.53;100.00;97530.59;5085681;27;20023;-79
2023/03/23 08:13:23;;;;;;;29.67;17.20;;;;;;;16.72;100.00;97523.50;5095175;28;20584;-78
2023/03/23 08:15:49;;;;;;;28.58;17.20;;;;;;;16.85;100.00;97536.81;5103951;27;20023;-79
2023/03/23 08:18:15;;;;;;;30.98;17.40;;;;;;;17.18;100.00;97541.94;5109829;27;20045;-79
2023/03/23 08:20:41;;;;;;;28.77;16.65;;;;;;;17.33;100.00;97529.75;5113976;27;20031;-78
2023/03/23 08:23:07;;;;;;;28.65;16.05;;;;;;;16.98;100.00;97533.91;5040539;28;20050;-78
2023/03/23 08:25:33;;;;;;;28.17;16.25;;;;;;;17.08;100.00;97538.34;5012480;28;20032;-79
2023/03/23 08:28:01;;;;;;;29.27;16.27;;;;;;;16.86;100.00;97540.38;5002429;28;20029;-78
2023/03/23 08:30:29;;;;;;;29.83;15.48;;;;;;;17.20;100.00;97541.78;5007501;28;20408;-78
2023/03/23 08:32:57;;;;;;;24.27;14.52;;;;;;;16.96;100.00;97527.75;5011793;28;20078;-79
2023/03/23 08:35:23;;;;;;;27.52;15.60;;;;;;;16.85;100.00;97544.06;5011934;28;20033;-80
2023/03/23 08:37:54;;;;;;;25.92;14.50;;;;;;;16.72;100.00;97534.31;5028338;28;20446;-80
2023/03/23 08:40:21;;;;;;;21.50;13.57;;;;;;;16.63;100.00;97531.56;5028571;28;20034;-80
2023/03/23 08:42:48;;;;;;;23.58;13.73;;;;;;;16.40;100.00;97546.13;5009985;28;20060;-80
2023/03/23 08:45:17;;;;;;;22.63;13.27;;;;;;;16.80;99.02;97529.09;5012008;28;20021;-79
2023/03/23 08:47:44;;;;;;;25.25;14.35;;;;;;;17.37;95.29;97533.06;5010174;28;20022;-79
2023/03/23 08:50:13;;;;;;;22.85;13.70;;;;;;;17.57;90.33;97521.31;5008527;28;20030;-79
2023/03/23 08:52:39;;;;;;;24.13;11.98;;;;;;;18.04;84.23;97516.13;5025986;28;20436;-79
2023/03/23 08:55:05;;;;;;;22.52;12.02;;;;;;;17.43;84.08;97513.56;5045867;28;20029;-79
2023/03/23 08:57:31;;;;;;;20.45;12.63;;;;;;;17.56;86.80;97525.03;5028070;28;20061;-78
2023/03/23 09:00:13;;;;;;;22.42;13.35;;;;;;;17.07;88.41;97533.91;5011756;28;20072;-80
2023/03/23 09:02:38;;;;;;;;;;;;;;;16.89;88.70;97543.63;5013173;28;20075;-79
2023/03/23 09:05:14;;;;;;;28.50;13.27;;;;;;;16.99;91.16;97536.44;5011407;28;20331;-79
2023/03/23 09:08:00;;;;;;;22.08;12.82;;;;;;;17.49;87.36;97541.91;5097099;28;20128;-78
2023/03/23 09:10:27;;;;;;;21.33;10.73;;;;;;;17.99;80.98;97532.81;5011456;28;20045;-78
2023/03/23 09:12:54;;;;;;;29.88;15.82;;;;;;;18.04;76.25;97524.25;5008051;28;20040;-79
2023/03/23 09:15:20;;;;;;;33.25;18.00;;;;;;;17.97;76.55;97528.50;5006047;28;20029;-81
2023/03/23 09:17:50;;;;;;;22.13;11.73;;;;;;;17.81;76.38;97535.31;5014529;28;20029;-80
2023/03/23 09:20:20;;;;;;;19.25;12.02;;;;;;;18.15;76.46;97545.78;5030399;28;20531;-80
2023/03/23 09:23:07;;;;;;;19.63;11.18;;;;;;;17.93;79.36;97533.38;5029580;28;20120;-79
2023/03/23 09:25:33;;;;;;;18.75;10.93;;;;;;;18.43;73.56;97531.34;5028285;28;20496;-81
2023/03/23 09:27:59;;;;;;;24.77;13.30;;;;;;;18.24;72.73;97523.25;5028061;28;20041;-80
2023/03/23 09:30:36;;;;;;;22.90;10.98;;;;;;;18.34;67.13;97524.09;5028147;28;20040;-79
2023/03/23 09:33:03;;;;;;;20.95;12.38;;;;;;;17.95;70.62;97533.22;5007997;28;20065;-81
2023/03/23 09:35:31;;;;;;;21.17;11.15;;;;;;;17.65;70.52;97526.91;5009133;28;20077;-81
2023/03/23 09:38:00;;;;;;;17.25;10.38;;;;;;;17.33;71.49;97518.09;5002372;28;20029;-78
2023/03/23 09:40:48;;;;;;;18.98;10.20;;;;;;;16.69;80.43;97534.59;5028261;28;20116;-81
2023/03/23 09:43:17;;;;;;;17.50;10.38;;;;;;;16.54;84.57;97560.22;5009167;28;20068;-80
2023/03/23 09:46:16;;;;;;;20.05;10.85;;;;;;;16.22;86.06;97549.41;5031989;28;20056;-79
2023/03/23 09:48:51;;;;;;;17.05;8.80;;;;;;;16.20;86.59;97551.41;5028558;28;20040;-79
2023/03/23 09:51:36;;;;;;;21.88;10.40;;;;;;;16.84;79.19;97535.09;5014322;28;20029;-81
2023/03/23 09:54:23;;;;;;;15.98;10.00;;;;;;;17.59;74.74;97535.59;5027355;28;20036;-75
2023/03/23 09:56:51;;;;;;;16.10;9.88;;;;;;;17.88;72.38;97525.66;5009874;28;20037;-82
2023/03/23 09:59:38;;;;;;;17.90;10.05;;;;;;;18.17;72.36;97532.94;5010217;28;20036;-82
2023/03/23 10:02:21;;;;;;;21.65;11.15;;;;;;;19.13;67.23;97530.09;5009375;28;20543;-82
2023/03/23 10:04:50;;;;;;;16.90;10.52;;;;;;;19.15;66.07;97528.94;5006965;28;20033;-82
2023/03/23 10:07:18;;;;;;;23.88;11.05;;;;;;;19.68;63.33;97533.72;5010316;28;20029;-81
2023/03/23 10:09:46;;;;;;;16.63;10.80;;;;;;;19.93;61.14;97512.09;5096002;28;20033;-81
2023/03/23 10:12:30;;;;;;;19.38;11.68;;;;;;;19.33;61.23;97512.72;5008930;28;20026;-81
2023/03/23 10:15:10;;;;;;;17.45;11.00;;;;;;;19.18;65.75;97525.06;5009975;28;20029;-81
2023/03/23 10:18:21;;;;;;;;;;;;;;;;;;;;;
2023/03/23 10:42:49;;;;;;;19.42;9.70;;;;;;;17.67;68.61;97521.34;4900568;29;20090;-82
2023/03/23 11:14:18;;;;;;;;;;;;;;;;;;;;;
